createdAt,value
2022-12-06T00:03:53.730Z,4.79
2022-12-06T00:08:59.978Z,4.84
2022-12-06T00:14:06.373Z,4.74
2022-12-06T00:19:12.603Z,4.88
2022-12-06T00:24:18.748Z,4.95
2022-12-06T00:29:24.906Z,4.85
2022-12-06T00:34:30.973Z,4.92
2022-12-06T00:39:37.165Z,5.07
2022-12-06T00:44:43.276Z,5.33
2022-12-06T00:49:49.460Z,4.88
2022-12-06T00:54:55.562Z,5.07
2022-12-06T01:00:02.111Z,5.04
2022-12-06T01:05:07.367Z,4.88
2022-12-06T01:10:13.583Z,4.45
2022-12-06T01:15:20.045Z,4.56
2022-12-06T01:20:26.256Z,4.59
2022-12-06T01:25:35.886Z,4.45
2022-12-06T01:30:38.344Z,4.53
2022-12-06T01:35:44.478Z,4.50
2022-12-06T01:40:50.688Z,4.69
2022-12-06T01:45:56.783Z,4.86
2022-12-06T01:51:02.943Z,4.85
2022-12-06T01:56:09.110Z,4.62
2022-12-06T02:01:15.345Z,5.07
2022-12-06T02:06:21.479Z,4.99
2022-12-06T02:11:33.520Z,4.99
2022-12-06T02:16:33.678Z,5.22
2022-12-06T02:21:39.828Z,5.29
2022-12-06T02:26:45.979Z,4.86
2022-12-06T02:31:52.212Z,4.57
2022-12-06T02:36:58.277Z,4.70
2022-12-06T02:42:04.488Z,4.35
2022-12-06T02:47:10.614Z,4.10
2022-12-06T02:52:16.825Z,4.14
2022-12-06T02:57:22.911Z,3.92
2022-12-06T03:02:29.120Z,3.75
2022-12-06T03:07:35.203Z,3.95
2022-12-06T03:12:41.445Z,3.91
2022-12-06T03:17:47.596Z,3.95
2022-12-06T03:22:53.760Z,3.78
2022-12-06T03:27:59.812Z,4.31
2022-12-06T03:33:06.303Z,4.85
2022-12-06T03:38:12.358Z,4.20
2022-12-06T03:43:18.635Z,4.01
2022-12-06T03:48:24.687Z,4.00
2022-12-06T03:53:44.564Z,3.88
2022-12-06T03:58:50.946Z,3.66
2022-12-06T04:03:57.323Z,3.81
2022-12-06T04:09:03.433Z,3.42
2022-12-06T04:14:09.877Z,3.53
2022-12-06T04:19:15.944Z,3.43
2022-12-06T04:24:22.190Z,3.58
2022-12-06T04:29:28.263Z,3.82
2022-12-06T04:34:34.538Z,3.53
2022-12-06T04:39:40.595Z,4.08
2022-12-06T04:44:46.746Z,4.12
2022-12-06T04:49:52.802Z,3.84
2022-12-06T04:54:59.355Z,3.89
2022-12-06T05:00:05.450Z,4.31
2022-12-06T05:05:12.524Z,4.16
2022-12-06T05:10:18.579Z,4.53
2022-12-06T05:15:29.026Z,4.23
2022-12-06T05:20:30.458Z,4.09
2022-12-06T05:25:36.700Z,4.40
2022-12-06T05:30:42.860Z,4.41
2022-12-06T05:35:49.086Z,3.93
2022-12-06T05:40:55.138Z,3.95
2022-12-06T05:46:01.713Z,4.54
2022-12-06T05:51:08.119Z,5.04
2022-12-06T05:56:14.332Z,4.48
2022-12-06T06:01:20.483Z,4.06
2022-12-06T06:06:26.617Z,4.09
2022-12-06T06:11:32.784Z,4.25
2022-12-06T06:16:39.029Z,4.54
2022-12-06T06:21:45.149Z,4.19
2022-12-06T06:26:51.361Z,3.95
2022-12-06T06:31:57.455Z,3.81
2022-12-06T06:37:03.627Z,3.92
2022-12-06T06:42:09.854Z,4.06
2022-12-06T06:47:15.977Z,4.07
2022-12-06T06:52:22.042Z,4.07
2022-12-06T06:57:28.189Z,4.10
2022-12-06T07:02:34.309Z,4.43
2022-12-06T07:07:40.522Z,3.90
2022-12-06T07:12:47.298Z,4.47
2022-12-06T07:17:53.400Z,4.33
2022-12-06T07:22:59.486Z,4.28
2022-12-06T07:28:05.656Z,4.17
2022-12-06T07:33:12.122Z,4.51
2022-12-06T07:38:18.358Z,4.93
2022-12-06T07:43:24.400Z,4.96
2022-12-06T07:48:30.890Z,4.77
2022-12-06T07:53:37.932Z,4.73
2022-12-06T07:58:44.046Z,4.36
2022-12-06T08:03:50.232Z,4.28
2022-12-06T08:08:56.384Z,4.31
2022-12-06T08:14:02.446Z,4.20
2022-12-06T08:19:08.597Z,4.12
2022-12-06T08:24:14.989Z,3.91
2022-12-06T08:29:21.256Z,4.14
2022-12-06T08:34:27.315Z,3.96
2022-12-06T08:39:33.480Z,3.93
2022-12-06T08:44:39.544Z,3.61
2022-12-06T08:49:45.778Z,4.05
2022-12-06T08:54:51.857Z,4.05
2022-12-06T08:59:58.148Z,3.75
2022-12-06T09:05:04.306Z,4.00
2022-12-06T09:10:10.404Z,3.72
2022-12-06T09:15:16.554Z,3.57
2022-12-06T09:20:22.760Z,3.75
2022-12-06T09:25:28.824Z,4.41
2022-12-06T09:30:35.071Z,3.89
2022-12-06T09:35:41.153Z,4.77
2022-12-06T09:40:47.303Z,4.29
2022-12-06T09:45:53.390Z,4.19
2022-12-06T09:50:59.548Z,4.16
2022-12-06T09:56:05.640Z,4.00
2022-12-06T10:01:11.860Z,3.75
2022-12-06T10:06:17.917Z,3.59
2022-12-06T10:11:53.387Z,3.60
2022-12-06T10:16:59.802Z,3.63
2022-12-06T10:22:05.985Z,3.71
2022-12-06T10:27:12.058Z,3.25
2022-12-06T10:32:18.268Z,3.30
2022-12-06T10:37:24.412Z,3.29
2022-12-06T10:42:30.642Z,3.14
2022-12-06T10:47:36.773Z,2.69
2022-12-06T10:52:42.994Z,2.52
2022-12-06T10:57:49.063Z,2.60
2022-12-06T11:02:55.246Z,2.41
2022-12-06T11:08:01.452Z,2.33
2022-12-06T11:13:07.543Z,2.39
2022-12-06T11:18:13.595Z,2.34
2022-12-06T11:23:20.044Z,2.43
2022-12-06T11:28:26.099Z,2.00
2022-12-06T11:33:32.250Z,2.89
2022-12-06T11:38:38.307Z,2.04
2022-12-06T11:43:44.458Z,2.60
2022-12-06T11:48:50.517Z,2.66
2022-12-06T11:53:56.684Z,2.00
2022-12-06T11:59:02.820Z,1.76
2022-12-06T12:04:09.151Z,1.90
2022-12-06T12:09:15.311Z,1.79
2022-12-06T12:14:21.482Z,1.76
2022-12-06T12:19:28.593Z,1.75
2022-12-06T12:24:38.333Z,1.73
2022-12-06T12:29:40.711Z,1.88
2022-12-06T12:34:46.927Z,1.90
2022-12-06T12:39:53.469Z,1.89
2022-12-06T12:45:00.001Z,1.88
2022-12-06T12:50:05.236Z,2.00
2022-12-06T12:55:11.578Z,2.02
2022-12-06T13:00:17.667Z,2.25
2022-12-06T13:05:34.382Z,2.01
2022-12-06T13:10:29.491Z,1.84
2022-12-06T13:15:35.752Z,1.77
2022-12-06T13:20:41.855Z,1.63
2022-12-06T13:25:48.075Z,1.84
2022-12-06T13:30:54.646Z,1.94
2022-12-06T13:36:01.103Z,1.72
2022-12-06T13:41:07.940Z,2.32
2022-12-06T13:46:14.242Z,2.12
2022-12-06T13:51:20.479Z,1.88
2022-12-06T13:56:26.819Z,2.17
2022-12-06T14:01:36.931Z,1.96
2022-12-06T14:06:38.671Z,1.88
2022-12-06T14:11:44.820Z,2.50
2022-12-06T14:16:51.160Z,2.22
2022-12-06T14:21:57.136Z,1.87
2022-12-06T14:27:03.387Z,1.82
2022-12-06T14:32:09.450Z,1.99
2022-12-06T14:37:48.603Z,2.35
2022-12-06T14:42:54.672Z,1.99
2022-12-06T14:48:00.801Z,2.09
2022-12-06T14:53:06.855Z,1.96
2022-12-06T14:58:13.104Z,1.85
2022-12-06T15:03:19.261Z,1.61
2022-12-06T15:08:25.525Z,1.77
2022-12-06T15:13:31.582Z,1.95
2022-12-06T15:18:37.746Z,1.61
2022-12-06T15:23:43.818Z,1.65
2022-12-06T15:28:50.283Z,1.64
2022-12-06T15:33:56.401Z,1.66
2022-12-06T15:39:02.528Z,1.90
2022-12-06T15:44:08.672Z,1.92
2022-12-06T15:49:14.940Z,1.98
2022-12-06T15:54:21.041Z,2.01
2022-12-06T15:59:27.262Z,2.12
2022-12-06T16:04:33.343Z,2.16
2022-12-06T16:09:39.501Z,2.19
2022-12-06T16:14:45.602Z,2.40
2022-12-06T16:19:51.905Z,2.52
2022-12-06T16:24:58.037Z,2.62
2022-12-06T16:30:04.562Z,2.49
2022-12-06T16:35:10.655Z,2.50
2022-12-06T16:40:16.821Z,3.00
2022-12-06T16:45:22.957Z,3.64
2022-12-06T16:50:29.931Z,5.43
2022-12-06T16:55:36.001Z,6.06
2022-12-06T17:00:42.330Z,6.46
2022-12-06T17:05:48.411Z,5.77
2022-12-06T17:10:54.635Z,5.76
2022-12-06T17:16:00.858Z,5.27
2022-12-06T17:21:07.313Z,5.34
2022-12-06T17:26:13.733Z,4.96
2022-12-06T17:31:20.100Z,5.16
2022-12-06T17:36:26.185Z,5.32
2022-12-06T17:41:32.350Z,5.67
2022-12-06T17:46:38.447Z,5.33
2022-12-06T17:51:44.933Z,5.23
2022-12-06T17:56:51.015Z,5.85
2022-12-06T18:02:15.041Z,6.08
2022-12-06T18:07:03.015Z,6.23
2022-12-06T18:12:09.212Z,7.30
2022-12-06T18:17:15.341Z,7.72
2022-12-06T18:22:21.557Z,7.34
2022-12-06T18:27:27.704Z,7.51
2022-12-06T18:32:34.062Z,7.05
2022-12-06T18:37:40.187Z,7.01
2022-12-06T18:42:46.487Z,6.80
2022-12-06T18:47:52.635Z,6.70
2022-12-06T18:52:58.854Z,6.84
2022-12-06T18:58:04.927Z,6.42
2022-12-06T19:03:11.098Z,6.64
2022-12-06T19:08:17.310Z,6.50
2022-12-06T19:13:23.458Z,6.64
2022-12-06T19:18:29.520Z,6.32
2022-12-06T19:23:35.719Z,6.13
2022-12-06T19:28:41.928Z,5.94
2022-12-06T19:33:48.213Z,5.94
2022-12-06T19:38:54.588Z,5.49
2022-12-06T19:44:00.978Z,5.46
2022-12-06T19:49:07.128Z,5.30
2022-12-06T19:54:13.637Z,5.87
2022-12-06T19:59:19.709Z,8.09
2022-12-06T20:04:26.058Z,11.51
2022-12-06T20:09:32.184Z,9.01
2022-12-06T20:14:38.363Z,8.88
2022-12-06T20:19:44.541Z,9.57
2022-12-06T20:24:50.749Z,8.57
2022-12-06T20:29:56.885Z,8.34
2022-12-06T20:35:03.338Z,9.45
2022-12-06T20:40:09.158Z,9.20
2022-12-06T20:45:15.407Z,8.96
2022-12-06T20:50:21.551Z,8.91
2022-12-06T20:55:28.154Z,8.65
2022-12-06T21:00:34.313Z,8.17
2022-12-06T21:05:44.888Z,8.85
2022-12-06T21:11:14.398Z,8.41
2022-12-06T21:15:51.848Z,8.30
2022-12-06T21:20:57.991Z,8.40
2022-12-06T21:26:04.137Z,8.76
2022-12-06T21:32:20.887Z,10.37
2022-12-06T21:37:27.133Z,8.49
2022-12-06T21:42:33.280Z,8.48
2022-12-06T21:47:39.536Z,9.24
2022-12-06T21:52:45.682Z,8.87
2022-12-06T21:57:51.863Z,8.69
2022-12-06T22:02:58.170Z,9.23
2022-12-06T22:08:04.253Z,8.24
2022-12-06T22:13:10.382Z,8.97
2022-12-06T22:18:16.580Z,9.16
2022-12-06T22:23:22.660Z,8.71
2022-12-06T22:28:29.054Z,8.63
2022-12-06T22:33:35.218Z,12.25
2022-12-06T22:38:41.467Z,9.05
2022-12-06T22:43:47.566Z,9.02
2022-12-06T22:48:54.087Z,8.35
2022-12-06T22:54:00.234Z,8.84
2022-12-06T22:59:06.412Z,8.22
2022-12-06T23:04:12.696Z,8.07
2022-12-06T23:09:18.849Z,7.20
2022-12-06T23:14:24.917Z,6.38
2022-12-06T23:19:31.169Z,5.75
2022-12-06T23:24:51.722Z,5.78
2022-12-06T23:29:58.119Z,6.33
2022-12-06T23:35:04.038Z,6.52
2022-12-06T23:40:10.202Z,6.01
2022-12-06T23:45:16.368Z,6.17
2022-12-06T23:50:22.939Z,5.60
2022-12-06T23:55:29.044Z,5.44
